Time;durP1;ratioP1;P1;durP2;ratioP2;P2;SDS_P1;SDS_P2;PMS_P1;PMS_P2;Temp;Humidity;BMP_temperature;BMP_pressure;BME280_temperature;BME280_humidity;BME280_pressure;Samples;Min_cycle;Max_cycle;Signal;HPM_P1;HPM_P2
2021/12/30 00:00:35;;;;;;;0.70;0.70;;;;;;;;;;4936272;29;20206;-85
2021/12/30 00:03:02;;;;;;;1.93;1.73;;;;;;;;;;4936158;29;20258;-85
2021/12/30 00:05:30;;;;;;;1.67;1.30;;;;;;;;;;4936024;29;20266;-85
2021/12/30 00:07:57;;;;;;;0.70;0.70;;;;;;;;;;4936523;29;20226;-85
2021/12/30 00:10:25;;;;;;;0.40;0.40;;;;;;;;;;4936350;29;20234;-85
2021/12/30 00:12:53;;;;;;;0.67;0.47;;;;;;;;;;4936306;29;20237;-84
2021/12/30 00:15:22;;;;;;;0.50;0.50;;;;;;;;;;4936282;29;20198;-84
2021/12/30 00:17:50;;;;;;;0.50;0.50;;;;;;;;;;4936201;29;20213;-84
2021/12/30 00:20:18;;;;;;;0.43;0.43;;;;;;;;;;4936175;28;20207;-84
2021/12/30 00:22:46;;;;;;;0.73;0.50;;;;;;;;;;4935979;29;20234;-84
2021/12/30 00:25:15;;;;;;;0.60;0.60;;;;;;;;;;4935603;29;20282;-85
2021/12/30 00:27:42;;;;;;;0.43;0.43;;;;;;;;;;4935988;29;20613;-85
2021/12/30 00:30:12;;;;;;;0.33;0.33;;;;;;;;;;4936044;29;20587;-84
2021/12/30 00:32:42;;;;;;;0.70;0.70;;;;;;;;;;4935684;29;20191;-84
2021/12/30 00:35:11;;;;;;;0.23;0.23;;;;;;;;;;4935676;29;20206;-84
2021/12/30 00:37:39;;;;;;;0.40;0.40;;;;;;;;;;4935595;29;20210;-86
2021/12/30 00:40:08;;;;;;;0.57;0.57;;;;;;;;;;4935699;29;20202;-85
2021/12/30 00:42:36;;;;;;;0.40;0.40;;;;;;;;;;4935171;29;20249;-85
2021/12/30 00:45:03;;;;;;;0.50;0.50;;;;;;;;;;4935424;29;20210;-85
2021/12/30 00:47:31;;;;;;;1.23;0.70;;;;;;;;;;4935459;29;20202;-85
2021/12/30 00:50:00;;;;;;;0.60;0.60;;;;;;;;;;4935310;29;20203;-85
2021/12/30 00:52:27;;;;;;;0.50;0.50;;;;;;;;;;4935501;29;20640;-85
2021/12/30 00:54:55;;;;;;;0.67;0.67;;;;;;;;;;4935322;29;20676;-84
2021/12/30 00:57:22;;;;;;;0.50;0.50;;;;;;;;;;4935257;29;20691;-85
2021/12/30 00:59:49;;;;;;;0.60;0.60;;;;;;;;;;4935445;29;20201;-85
2021/12/30 01:02:17;;;;;;;0.60;0.60;;;;;;;;;;4935218;29;20297;-85
2021/12/30 01:04:44;;;;;;;0.40;0.40;;;;;;;;;;4935396;29;20286;-86
2021/12/30 01:07:13;;;;;;;0.37;0.37;;;;;;;;;;4935156;29;20222;-85
2021/12/30 01:09:40;;;;;;;0.63;0.60;;;;;;;;;;4935155;29;20234;-85
2021/12/30 01:12:08;;;;;;;0.60;0.60;;;;;;;;;;4935275;29;20301;-84
2021/12/30 01:14:36;;;;;;;2.67;1.30;;;;;;;;;;4935037;29;20285;-85
2021/12/30 01:17:15;;;;;;;0.97;0.60;;;;;;;;;;4935093;29;20751;-83
2021/12/30 01:19:46;;;;;;;0.47;0.47;;;;;;;;;;4935466;29;20197;-85
2021/12/30 01:22:17;;;;;;;1.30;1.20;;;;;;;;;;4934880;29;20341;-84
2021/12/30 01:24:45;;;;;;;3.20;2.90;;;;;;;;;;4935015;29;20190;-84
2021/12/30 01:27:13;;;;;;;1.03;0.93;;;;;;;;;;4934836;29;20230;-85
2021/12/30 01:29:41;;;;;;;1.20;1.10;;;;;;;;;;4935231;29;20209;-84
2021/12/30 01:32:09;;;;;;;0.40;0.40;;;;;;;;;;4934848;29;20779;-84
2021/12/30 01:34:36;;;;;;;0.20;0.20;;;;;;;;;;4934983;29;20564;-85
2021/12/30 01:37:05;;;;;;;0.60;0.60;;;;;;;;;;4935067;29;20207;-85
2021/12/30 01:39:36;;;;;;;0.60;0.60;;;;;;;;;;4934786;29;20293;-85
2021/12/30 01:42:05;;;;;;;0.30;0.30;;;;;;;;;;4935234;29;20591;-84
2021/12/30 01:44:33;;;;;;;0.40;0.40;;;;;;;;;;4934732;29;20301;-84
2021/12/30 01:47:02;;;;;;;0.33;0.33;;;;;;;;;;4934578;29;20611;-85
2021/12/30 01:49:29;;;;;;;0.47;0.30;;;;;;;;;;4934695;29;20207;-84
2021/12/30 01:51:57;;;;;;;0.50;0.50;;;;;;;;;;4934634;29;20637;-84
2021/12/30 01:54:26;;;;;;;0.60;0.60;;;;;;;;;;4934840;29;20206;-85
2021/12/30 01:56:58;;;;;;;1.40;0.20;;;;;;;;;;4937999;29;20206;-84
2021/12/30 01:59:25;;;;;;;0.17;0.17;;;;;;;;;;4938445;29;20277;-84
2021/12/30 02:01:56;;;;;;;0.30;0.30;;;;;;;;;;4938565;29;20234;-84
2021/12/30 02:04:24;;;;;;;0.20;0.20;;;;;;;;;;4938610;29;20281;-84
2021/12/30 02:06:52;;;;;;;0.40;0.40;;;;;;;;;;4938378;29;20230;-84
2021/12/30 02:09:20;;;;;;;0.57;0.57;;;;;;;;;;4938376;29;20202;-84
2021/12/30 02:11:48;;;;;;;0.40;0.40;;;;;;;;;;4938520;29;20202;-84
2021/12/30 02:14:17;;;;;;;0.37;0.30;;;;;;;;;;4938272;29;20683;-85
2021/12/30 02:16:45;;;;;;;0.30;0.30;;;;;;;;;;4938277;29;20293;-84
2021/12/30 02:19:12;;;;;;;0.27;0.27;;;;;;;;;;4938561;29;20207;-84
2021/12/30 02:21:41;;;;;;;0.40;0.40;;;;;;;;;;4937753;29;20242;-85
2021/12/30 02:24:09;;;;;;;0.40;0.40;;;;;;;;;;4938080;29;20191;-84
2021/12/30 02:26:37;;;;;;;0.40;0.40;;;;;;;;;;4937977;29;20234;-84
2021/12/30 02:29:04;;;;;;;0.33;0.33;;;;;;;;;;4938249;29;20210;-84
2021/12/30 02:31:32;;;;;;;0.40;0.40;;;;;;;;;;4937832;29;20290;-85
2021/12/30 02:34:00;;;;;;;0.50;0.50;;;;;;;;;;4937954;29;20238;-84
2021/12/30 02:36:29;;;;;;;0.20;0.20;;;;;;;;;;4937755;29;20209;-85
2021/12/30 02:38:58;;;;;;;0.77;0.77;;;;;;;;;;4938079;29;20622;-84
2021/12/30 02:41:27;;;;;;;0.40;0.40;;;;;;;;;;4937613;29;20203;-84
2021/12/30 02:43:55;;;;;;;0.20;0.20;;;;;;;;;;4937678;29;20206;-83
2021/12/30 02:46:24;;;;;;;0.40;0.30;;;;;;;;;;4937741;29;20577;-84
2021/12/30 02:48:52;;;;;;;0.10;0.10;;;;;;;;;;4937576;29;20205;-84
2021/12/30 02:51:21;;;;;;;0.20;0.20;;;;;;;;;;4937555;29;20289;-84
2021/12/30 02:53:48;;;;;;;0.73;0.60;;;;;;;;;;4937884;29;20203;-84
2021/12/30 02:56:17;;;;;;;0.63;0.63;;;;;;;;;;4937438;29;20245;-84
2021/12/30 02:58:45;;;;;;;1.97;0.90;;;;;;;;;;4937422;29;20213;-84
2021/12/30 03:01:14;;;;;;;1.40;1.30;;;;;;;;;;4937657;29;20230;-84
2021/12/30 03:03:42;;;;;;;0.30;0.30;;;;;;;;;;4937352;29;20242;-85
2021/12/30 03:06:11;;;;;;;0.47;0.47;;;;;;;;;;4936758;29;20317;-84
2021/12/30 03:08:39;;;;;;;0.30;0.30;;;;;;;;;;4937177;29;20210;-84
2021/12/30 03:11:08;;;;;;;0.30;0.30;;;;;;;;;;4937175;29;20206;-83
2021/12/30 03:13:41;;;;;;;0.93;0.70;;;;;;;;;;4937191;29;20293;-83
2021/12/30 03:16:11;;;;;;;0.50;0.50;;;;;;;;;;4937617;29;20210;-83
2021/12/30 03:18:40;;;;;;;1.30;0.20;;;;;;;;;;4937324;29;20274;-83
2021/12/30 03:21:09;;;;;;;0.47;0.47;;;;;;;;;;4937331;29;20638;-84
2021/12/30 03:23:37;;;;;;;0.23;0.20;;;;;;;;;;4936761;29;20646;-84
2021/12/30 03:26:07;;;;;;;0.50;0.50;;;;;;;;;;4937172;29;20230;-84
2021/12/30 03:28:34;;;;;;;0.40;0.40;;;;;;;;;;4936823;29;20202;-84
2021/12/30 03:31:03;;;;;;;0.43;0.43;;;;;;;;;;4936885;29;20821;-84
2021/12/30 03:33:32;;;;;;;0.50;0.50;;;;;;;;;;4936609;29;20643;-84
2021/12/30 03:36:01;;;;;;;10.73;6.20;;;;;;;;;;4936751;29;20680;-84
2021/12/30 03:38:29;;;;;;;1.27;1.10;;;;;;;;;;4937039;29;20297;-84
2021/12/30 03:40:56;;;;;;;0.47;0.47;;;;;;;;;;4936930;29;20281;-84
2021/12/30 03:43:24;;;;;;;0.30;0.30;;;;;;;;;;4936746;29;20631;-84
2021/12/30 03:45:52;;;;;;;0.60;0.60;;;;;;;;;;4936655;29;20615;-84
2021/12/30 03:48:21;;;;;;;0.30;0.30;;;;;;;;;;4936827;29;20203;-84
2021/12/30 03:50:49;;;;;;;0.30;0.30;;;;;;;;;;4936372;29;20293;-84
2021/12/30 03:53:17;;;;;;;0.40;0.40;;;;;;;;;;4936703;29;20209;-84
2021/12/30 03:55:46;;;;;;;0.50;0.50;;;;;;;;;;4936362;29;20242;-84
2021/12/30 03:58:14;;;;;;;0.50;0.50;;;;;;;;;;4936312;29;20201;-84
2021/12/30 04:00:41;;;;;;;0.40;0.40;;;;;;;;;;4936452;29;20202;-84
2021/12/30 04:03:08;;;;;;;0.40;0.40;;;;;;;;;;4936432;29;20286;-84
2021/12/30 04:05:37;;;;;;;0.50;0.50;;;;;;;;;;4936547;29;20198;-84
2021/12/30 04:08:07;;;;;;;0.63;0.63;;;;;;;;;;4936522;29;20241;-83
2021/12/30 04:10:35;;;;;;;0.20;0.20;;;;;;;;;;4936604;29;20206;-84
2021/12/30 04:13:04;;;;;;;0.30;0.30;;;;;;;;;;4936703;29;20289;-84
2021/12/30 04:15:31;;;;;;;0.50;0.50;;;;;;;;;;4936402;29;20242;-84
2021/12/30 04:17:58;;;;;;;0.40;0.40;;;;;;;;;;4935320;29;20218;-84
2021/12/30 04:20:26;;;;;;;0.30;0.30;;;;;;;;;;4936129;29;20203;-84
2021/12/30 04:22:55;;;;;;;0.60;0.60;;;;;;;;;;4935857;29;20723;-85
2021/12/30 04:25:22;;;;;;;0.30;0.30;;;;;;;;;;4933401;29;20203;-83
2021/12/30 04:27:49;;;;;;;0.37;0.37;;;;;;;;;;4936079;29;20222;-84
2021/12/30 04:30:17;;;;;;;0.70;0.70;;;;;;;;;;4935479;29;20207;-84
2021/12/30 04:32:45;;;;;;;0.40;0.40;;;;;;;;;;4935421;29;20574;-84
2021/12/30 04:35:13;;;;;;;0.80;0.80;;;;;;;;;;4935528;29;20198;-84
2021/12/30 04:37:41;;;;;;;0.37;0.37;;;;;;;;;;4935989;29;20198;-84
2021/12/30 04:40:12;;;;;;;0.70;0.70;;;;;;;;;;4935651;29;20257;-84
2021/12/30 04:42:39;;;;;;;0.40;0.40;;;;;;;;;;4935692;29;20187;-84
2021/12/30 04:45:08;;;;;;;0.30;0.30;;;;;;;;;;4935691;29;20266;-83
2021/12/30 04:47:37;;;;;;;0.40;0.40;;;;;;;;;;4935492;29;20270;-83
2021/12/30 04:50:06;;;;;;;0.40;0.40;;;;;;;;;;4935564;29;20210;-84
2021/12/30 04:52:33;;;;;;;2.17;1.97;;;;;;;;;;4935374;29;20297;-84
2021/12/30 04:55:00;;;;;;;2.07;1.80;;;;;;;;;;4935291;29;20202;-84
2021/12/30 04:57:29;;;;;;;0.70;0.70;;;;;;;;;;4935397;29;20206;-83
2021/12/30 04:59:56;;;;;;;0.37;0.37;;;;;;;;;;4935061;29;20207;-84
2021/12/30 05:02:28;;;;;;;1.80;1.70;;;;;;;;;;4935249;29;20343;-83
2021/12/30 05:04:55;;;;;;;0.50;0.50;;;;;;;;;;4932517;29;20304;-84
2021/12/30 05:07:22;;;;;;;1.37;1.27;;;;;;;;;;4935159;29;20723;-85
2021/12/30 05:09:50;;;;;;;1.47;1.00;;;;;;;;;;4935001;29;20202;-85
2021/12/30 05:12:17;;;;;;;1.10;1.00;;;;;;;;;;4935079;29;20257;-84
2021/12/30 05:14:45;;;;;;;3.53;2.77;;;;;;;;;;4935069;29;20692;-84
2021/12/30 05:17:13;;;;;;;0.60;0.60;;;;;;;;;;4934989;29;20206;-86
2021/12/30 05:19:40;;;;;;;1.10;1.00;;;;;;;;;;4934889;29;20207;-85
2021/12/30 05:22:07;;;;;;;1.93;1.77;;;;;;;;;;4934914;29;20238;-85
2021/12/30 05:24:35;;;;;;;0.73;0.73;;;;;;;;;;4935432;29;20618;-84
2021/12/30 05:27:02;;;;;;;0.50;0.50;;;;;;;;;;4935045;29;20285;-83
2021/12/30 05:29:29;;;;;;;0.57;0.57;;;;;;;;;;4937251;29;20202;-83
2021/12/30 05:31:58;;;;;;;0.50;0.50;;;;;;;;;;4941225;29;20202;-83
2021/12/30 05:34:25;;;;;;;0.50;0.50;;;;;;;;;;4941186;28;20586;-83
2021/12/30 05:36:53;;;;;;;0.63;0.60;;;;;;;;;;4941363;29;20265;-83
2021/12/30 05:39:20;;;;;;;0.33;0.33;;;;;;;;;;4941338;29;20694;-84
2021/12/30 05:41:47;;;;;;;0.60;0.60;;;;;;;;;;4941801;29;20198;-83
2021/12/30 05:44:15;;;;;;;1.87;0.90;;;;;;;;;;4941431;29;20245;-84
2021/12/30 05:46:42;;;;;;;1.70;1.20;;;;;;;;;;4941770;29;20281;-84
2021/12/30 05:49:11;;;;;;;1.07;0.93;;;;;;;;;;4941072;29;20679;-83
2021/12/30 05:51:38;;;;;;;0.57;0.57;;;;;;;;;;4941666;29;20204;-84
2021/12/30 05:54:05;;;;;;;0.77;0.77;;;;;;;;;;4941163;29;20285;-82
2021/12/30 05:56:33;;;;;;;0.93;0.93;;;;;;;;;;4941575;29;20671;-84
2021/12/30 05:59:03;;;;;;;1.83;1.73;;;;;;;;;;4941639;29;20207;-84
2021/12/30 06:01:30;;;;;;;0.50;0.50;;;;;;;;;;4942772;28;20273;-83
2021/12/30 06:03:57;;;;;;;0.60;0.60;;;;;;;;;;4941668;29;20209;-84
2021/12/30 06:06:26;;;;;;;0.50;0.50;;;;;;;;;;4948325;29;20203;-84
2021/12/30 06:08:55;;;;;;;0.40;0.40;;;;;;;;;;4948624;29;20230;-84
2021/12/30 06:11:22;;;;;;;0.73;0.73;;;;;;;;;;4946574;29;20206;-83
2021/12/30 06:13:50;;;;;;;1.07;1.00;;;;;;;;;;4945229;29;20249;-83
2021/12/30 06:16:17;;;;;;;0.60;0.60;;;;;;;;;;4946612;29;20202;-84
2021/12/30 06:18:45;;;;;;;0.47;0.47;;;;;;;;;;4945900;29;20202;-85
2021/12/30 06:21:12;;;;;;;0.40;0.40;;;;;;;;;;4946705;29;20202;-84
2021/12/30 06:23:41;;;;;;;0.53;0.53;;;;;;;;;;4946899;29;20292;-84
2021/12/30 06:26:08;;;;;;;0.23;0.20;;;;;;;;;;4946438;29;20202;-83
2021/12/30 06:28:35;;;;;;;1.87;1.50;;;;;;;;;;4940976;29;20280;-83
2021/12/30 06:31:03;;;;;;;1.03;0.93;;;;;;;;;;4939408;29;20282;-83
2021/12/30 06:33:30;;;;;;;0.40;0.40;;;;;;;;;;4939743;29;20202;-83
2021/12/30 06:35:57;;;;;;;0.33;0.33;;;;;;;;;;4939547;29;20301;-83
2021/12/30 06:38:25;;;;;;;0.30;0.30;;;;;;;;;;4939549;29;20198;-82
2021/12/30 06:40:54;;;;;;;0.40;0.40;;;;;;;;;;4938193;29;20587;-83
2021/12/30 06:43:21;;;;;;;0.47;0.47;;;;;;;;;;4936969;29;20667;-83
2021/12/30 06:45:48;;;;;;;1.50;1.40;;;;;;;;;;4938130;29;20202;-84
2021/12/30 06:48:16;;;;;;;0.30;0.30;;;;;;;;;;4938204;29;20322;-84
2021/12/30 06:50:51;;;;;;;0.40;0.40;;;;;;;;;;4937831;29;20253;-83
2021/12/30 06:53:18;;;;;;;1.67;1.57;;;;;;;;;;4937916;29;20194;-83
2021/12/30 06:55:46;;;;;;;0.30;0.30;;;;;;;;;;4937532;29;20762;-83
2021/12/30 06:58:15;;;;;;;1.23;1.13;;;;;;;;;;4937429;29;20668;-83
2021/12/30 07:00:42;;;;;;;0.43;0.43;;;;;;;;;;4937249;29;20259;-83
2021/12/30 07:03:10;;;;;;;1.87;1.77;;;;;;;;;;4937530;29;20210;-83
2021/12/30 07:05:37;;;;;;;11.00;6.63;;;;;;;;;;4936221;29;20203;-83
2021/12/30 07:08:05;;;;;;;1.20;1.10;;;;;;;;;;4936731;29;20262;-83
2021/12/30 07:10:32;;;;;;;1.57;1.47;;;;;;;;;;4936964;29;20680;-82
2021/12/30 07:13:00;;;;;;;0.73;0.73;;;;;;;;;;4937043;29;20202;-83
2021/12/30 07:15:28;;;;;;;2.23;2.00;;;;;;;;;;4937010;29;20226;-83
2021/12/30 07:17:56;;;;;;;0.97;0.97;;;;;;;;;;4937232;29;20209;-82
2021/12/30 07:20:23;;;;;;;1.20;1.10;;;;;;;;;;4936911;29;20205;-82
2021/12/30 07:22:50;;;;;;;1.50;1.40;;;;;;;;;;4936681;29;20301;-82
2021/12/30 07:25:18;;;;;;;0.90;0.90;;;;;;;;;;4937100;29;20639;-83
2021/12/30 07:27:45;;;;;;;1.70;1.60;;;;;;;;;;4937141;29;20675;-83
2021/12/30 07:30:13;;;;;;;2.77;2.20;;;;;;;;;;4936765;29;20206;-82
2021/12/30 07:32:42;;;;;;;3.33;1.40;;;;;;;;;;4936776;29;20287;-83
2021/12/30 07:35:10;;;;;;;6.23;5.23;;;;;;;;;;4936589;29;20203;-83
2021/12/30 07:37:38;;;;;;;4.10;3.70;;;;;;;;;;4936628;29;20606;-83
2021/12/30 07:40:06;;;;;;;4.13;3.63;;;;;;;;;;4936514;29;20254;-82
2021/12/30 07:42:34;;;;;;;2.60;2.40;;;;;;;;;;4936535;29;20202;-82
2021/12/30 07:45:01;;;;;;;2.73;2.30;;;;;;;;;;4936477;29;20209;-82
2021/12/30 07:47:28;;;;;;;9.30;8.33;;;;;;;;;;4936311;29;20769;-82
2021/12/30 07:49:57;;;;;;;5.03;4.30;;;;;;;;;;4936530;29;20206;-83
2021/12/30 07:52:24;;;;;;;1.90;1.80;;;;;;;;;;4935535;29;20206;-82
2021/12/30 07:54:51;;;;;;;5.13;4.63;;;;;;;;;;4936024;29;20213;-83
2021/12/30 07:57:21;;;;;;;4.40;3.93;;;;;;;;;;4930198;29;20214;-83
2021/12/30 07:59:48;;;;;;;7.13;5.90;;;;;;;;;;4927813;29;20218;-83
2021/12/30 08:02:15;;;;;;;4.67;4.20;;;;;;;;;;4936394;29;20199;-83
2021/12/30 08:04:43;;;;;;;3.60;3.30;;;;;;;;;;4935894;29;20253;-83
2021/12/30 08:07:12;;;;;;;4.17;3.77;;;;;;;;;;4936232;29;20199;-82
2021/12/30 08:09:39;;;;;;;6.23;5.67;;;;;;;;;;4935784;29;20202;-83
2021/12/30 08:12:07;;;;;;;1.90;1.80;;;;;;;;;;4935824;29;20199;-83
2021/12/30 08:14:35;;;;;;;1.60;1.50;;;;;;;;;;4936077;29;20234;-83
2021/12/30 08:17:03;;;;;;;5.63;4.83;;;;;;;;;;4935808;29;20265;-82
2021/12/30 08:19:30;;;;;;;11.10;10.10;;;;;;;;;;4935668;29;20195;-83
2021/12/30 08:21:58;;;;;;;13.37;11.20;;;;;;;;;;4935503;29;20301;-83
2021/12/30 08:24:27;;;;;;;1.80;1.70;;;;;;;;;;4935693;29;20297;-82
2021/12/30 08:26:54;;;;;;;2.73;2.33;;;;;;;;;;4935657;29;20212;-82
2021/12/30 08:29:21;;;;;;;1.70;1.60;;;;;;;;;;4935460;29;20734;-82
2021/12/30 08:31:49;;;;;;;1.43;1.33;;;;;;;;;;4935807;29;20310;-83
2021/12/30 08:34:16;;;;;;;2.80;2.20;;;;;;;;;;4935683;29;20607;-83
2021/12/30 08:36:43;;;;;;;2.13;1.93;;;;;;;;;;4935605;29;20209;-83
2021/12/30 08:39:10;;;;;;;1.93;1.73;;;;;;;;;;4933783;29;20235;-82
2021/12/30 08:41:39;;;;;;;5.50;5.07;;;;;;;;;;4924630;29;20266;-83
2021/12/30 08:44:06;;;;;;;2.93;2.73;;;;;;;;;;4914796;29;20199;-82
2021/12/30 08:46:34;;;;;;;4.33;4.03;;;;;;;;;;4915552;29;20258;-83
2021/12/30 08:49:01;;;;;;;9.67;6.47;;;;;;;;;;4916354;29;20227;-82
2021/12/30 08:51:28;;;;;;;2.53;2.30;;;;;;;;;;4916641;29;20630;-83
2021/12/30 08:53:56;;;;;;;1.50;1.40;;;;;;;;;;4916208;29;20233;-82
2021/12/30 08:56:23;;;;;;;4.63;2.50;;;;;;;;;;4916389;29;20595;-82
2021/12/30 08:58:52;;;;;;;1.57;1.47;;;;;;;;;;4916424;29;20583;-82
2021/12/30 09:01:19;;;;;;;2.67;2.23;;;;;;;;;;4916037;29;20203;-82
2021/12/30 09:03:46;;;;;;;4.27;3.90;;;;;;;;;;4915642;29;20592;-82
2021/12/30 09:06:14;;;;;;;2.27;2.10;;;;;;;;;;4916243;29;20267;-83
2021/12/30 09:08:41;;;;;;;1.40;1.30;;;;;;;;;;4915911;29;20230;-82
2021/12/30 09:11:08;;;;;;;2.27;2.00;;;;;;;;;;4915863;29;20203;-83
2021/12/30 09:13:35;;;;;;;1.13;1.10;;;;;;;;;;4916110;29;20200;-83
2021/12/30 09:16:05;;;;;;;3.90;3.50;;;;;;;;;;4915878;29;20211;-83
2021/12/30 09:18:32;;;;;;;1.70;1.60;;;;;;;;;;4916166;29;20282;-83
2021/12/30 09:20:59;;;;;;;3.17;1.20;;;;;;;;;;4916086;29;20697;-83
2021/12/30 09:23:27;;;;;;;0.70;0.70;;;;;;;;;;4915661;29;20251;-83
2021/12/30 09:25:56;;;;;;;0.70;0.70;;;;;;;;;;4915716;29;20294;-82
2021/12/30 09:28:24;;;;;;;1.70;1.60;;;;;;;;;;4916036;29;20579;-83
2021/12/30 09:30:52;;;;;;;3.43;3.10;;;;;;;;;;4915851;29;20199;-82
2021/12/30 09:33:21;;;;;;;2.00;1.90;;;;;;;;;;4915632;29;20302;-83
2021/12/30 09:35:48;;;;;;;0.70;0.70;;;;;;;;;;4915722;29;20207;-83
2021/12/30 09:38:16;;;;;;;2.67;2.03;;;;;;;;;;4915606;29;20203;-82
2021/12/30 09:40:43;;;;;;;1.77;1.67;;;;;;;;;;4925907;29;20209;-83
2021/12/30 09:43:11;;;;;;;0.80;0.80;;;;;;;;;;4915931;29;20305;-83
2021/12/30 09:45:41;;;;;;;9.30;8.33;;;;;;;;;;4915597;29;20632;-83
2021/12/30 09:48:11;;;;;;;6.43;5.83;;;;;;;;;;4915665;29;20219;-83
2021/12/30 09:50:41;;;;;;;3.00;2.80;;;;;;;;;;4915603;29;20210;-83
2021/12/30 09:53:09;;;;;;;3.27;3.07;;;;;;;;;;4915616;29;20192;-83
2021/12/30 09:55:37;;;;;;;3.57;3.27;;;;;;;;;;4915562;29;20210;-83
2021/12/30 09:58:05;;;;;;;1.77;1.67;;;;;;;;;;4915457;29;20680;-83
2021/12/30 10:00:33;;;;;;;1.70;1.60;;;;;;;;;;4915487;29;20203;-83
2021/12/30 10:03:01;;;;;;;2.93;2.73;;;;;;;;;;4915737;29;20613;-83
2021/12/30 10:05:31;;;;;;;2.30;2.10;;;;;;;;;;4915857;29;20208;-83
2021/12/30 10:08:15;;;;;;;3.40;2.33;;;;;;;;;;4915648;29;20206;-83
2021/12/30 10:10:43;;;;;;;2.33;2.13;;;;;;;;;;4915753;29;20604;-83
2021/12/30 10:13:23;;;;;;;4.83;4.43;;;;;;;;;;4915402;29;20203;-83
2021/12/30 10:15:53;;;;;;;1.30;1.10;;;;;;;;;;4915404;29;20191;-83
2021/12/30 10:18:22;;;;;;;6.03;5.47;;;;;;;;;;4919240;29;20207;-83
2021/12/30 10:20:50;;;;;;;2.33;2.13;;;;;;;;;;4918805;29;20239;-83
2021/12/30 10:23:20;;;;;;;3.03;2.83;;;;;;;;;;4918668;29;20231;-83
2021/12/30 10:25:49;;;;;;;3.90;3.40;;;;;;;;;;4918797;29;20195;-83
2021/12/30 10:28:26;;;;;;;3.00;2.70;;;;;;;;;;4918998;29;20203;-83
2021/12/30 10:30:56;;;;;;;3.13;2.50;;;;;;;;;;4919009;29;20657;-82
2021/12/30 10:33:25;;;;;;;9.37;8.40;;;;;;;;;;4918889;29;20199;-83
2021/12/30 10:35:53;;;;;;;7.77;7.07;;;;;;;;;;4918583;29;20199;-83
2021/12/30 10:38:22;;;;;;;1.70;1.60;;;;;;;;;;4918821;29;20199;-83
2021/12/30 10:40:52;;;;;;;6.27;3.93;;;;;;;;;;4923972;29;20215;-82
2021/12/30 10:43:27;;;;;;;5.17;3.63;;;;;;;;;;4937771;29;20211;-83
2021/12/30 10:46:10;;;;;;;2.27;2.13;;;;;;;;;;4937421;29;20197;-83
2021/12/30 10:48:48;;;;;;;4.00;3.70;;;;;;;;;;4937288;29;20215;-83
2021/12/30 10:51:18;;;;;;;3.07;2.87;;;;;;;;;;4937405;29;20190;-82
2021/12/30 10:53:47;;;;;;;1.30;1.20;;;;;;;;;;4937305;29;20202;-82
2021/12/30 10:56:21;;;;;;;12.30;7.40;;;;;;;;;;4937520;29;20663;-83
2021/12/30 10:58:49;;;;;;;2.57;2.37;;;;;;;;;;4937114;29;20209;-83
2021/12/30 11:01:18;;;;;;;1.43;1.33;;;;;;;;;;4937103;29;20210;-83
2021/12/30 11:03:55;;;;;;;1.50;1.40;;;;;;;;;;4937066;29;20205;-83
2021/12/30 11:06:22;;;;;;;1.47;1.37;;;;;;;;;;4937102;29;20194;-82
2021/12/30 11:09:05;;;;;;;2.97;2.53;;;;;;;;;;4936838;29;20319;-83
2021/12/30 11:11:32;;;;;;;2.00;1.90;;;;;;;;;;4936976;29;20191;-83
2021/12/30 11:14:01;;;;;;;1.87;1.77;;;;;;;;;;4936939;29;20206;-83
2021/12/30 11:16:28;;;;;;;2.87;2.67;;;;;;;;;;4936880;29;20300;-83
2021/12/30 11:18:57;;;;;;;3.63;3.33;;;;;;;;;;4936769;29;20588;-83
2021/12/30 11:21:39;;;;;;;2.07;1.87;;;;;;;;;;4936887;29;20675;-83
2021/12/30 11:24:08;;;;;;;3.90;3.40;;;;;;;;;;4934785;29;20238;-82
2021/12/30 11:26:36;;;;;;;8.73;6.47;;;;;;;;;;4936563;29;20210;-83
2021/12/30 11:29:05;;;;;;;8.17;7.47;;;;;;;;;;4936638;29;20226;-83
2021/12/30 11:31:33;;;;;;;1.80;1.70;;;;;;;;;;4936650;29;20207;-83
2021/12/30 11:34:01;;;;;;;10.20;9.30;;;;;;;;;;4936745;29;20199;-82
2021/12/30 11:36:29;;;;;;;2.87;2.67;;;;;;;;;;4936595;29;20202;-82
2021/12/30 11:38:57;;;;;;;2.50;2.30;;;;;;;;;;4934839;29;20198;-81
2021/12/30 11:41:28;;;;;;;11.50;10.50;;;;;;;;;;4927666;29;20571;-82
2021/12/30 11:43:56;;;;;;;7.00;6.30;;;;;;;;;;4917508;29;20196;-82
2021/12/30 11:46:43;;;;;;;6.43;5.20;;;;;;;;;;4917307;29;20203;-82
2021/12/30 11:49:12;;;;;;;1.87;1.77;;;;;;;;;;4917573;29;20215;-81
2021/12/30 11:51:44;;;;;;;8.80;8.00;;;;;;;;;;4917225;29;20207;-81
2021/12/30 11:54:37;;;;;;;5.80;5.30;;;;;;;;;;4917211;29;20284;-82
2021/12/30 11:57:28;;;;;;;4.10;3.80;;;;;;;;;;4917426;29;20586;-82
2021/12/30 11:59:57;;;;;;;8.93;6.53;;;;;;;;;;4917385;29;20203;-81
2021/12/30 12:02:35;;;;;;;3.60;3.30;;;;;;;;;;4917042;29;20204;-82
2021/12/30 12:05:41;;;;;;;13.33;12.07;;;;;;;;;;4917166;29;20203;-82
2021/12/30 12:08:10;;;;;;;25.13;22.67;;;;;;;;;;4917000;29;20239;-82
2021/12/30 12:10:38;;;;;;;33.30;28.43;;;;;;;;;;4916849;29;20223;-82
2021/12/30 12:13:41;;;;;;;9.77;8.97;;;;;;;;;;4917163;29;20206;-81
2021/12/30 12:16:10;;;;;;;3.10;2.80;;;;;;;;;;4917078;29;20274;-81
2021/12/30 12:18:43;;;;;;;3.77;3.33;;;;;;;;;;4916901;29;20204;-81
2021/12/30 12:21:10;;;;;;;7.70;6.73;;;;;;;;;;4916942;29;20219;-81
2021/12/30 12:23:39;;;;;;;3.87;3.57;;;;;;;;;;4916593;29;20239;-81
2021/12/30 12:26:11;;;;;;;9.40;8.43;;;;;;;;;;4917106;29;20294;-81
2021/12/30 12:28:39;;;;;;;6.50;5.90;;;;;;;;;;4916595;29;20204;-81
2021/12/30 12:31:08;;;;;;;12.80;11.60;;;;;;;;;;4916700;29;20195;-81
2021/12/30 12:33:38;;;;;;;7.43;6.83;;;;;;;;;;4916618;29;20243;-82
2021/12/30 12:36:12;;;;;;;5.70;5.20;;;;;;;;;;4916859;29;20286;-82
2021/12/30 12:38:41;;;;;;;4.37;4.00;;;;;;;;;;4916178;29;20223;-82
2021/12/30 12:41:23;;;;;;;6.90;5.10;;;;;;;;;;4924258;29;20207;-82
2021/12/30 12:43:58;;;;;;;4.20;3.90;;;;;;;;;;4935946;29;20203;-81
2021/12/30 12:46:44;;;;;;;3.40;3.20;;;;;;;;;;4935528;29;20202;-82
2021/12/30 12:49:13;;;;;;;3.13;2.93;;;;;;;;;;4935476;29;20211;-81
2021/12/30 12:51:52;;;;;;;2.63;2.43;;;;;;;;;;4935285;29;20217;-81
2021/12/30 12:54:34;;;;;;;3.43;3.23;;;;;;;;;;4935468;29;20197;-82
2021/12/30 12:57:06;;;;;;;4.73;4.37;;;;;;;;;;4935224;29;20203;-81
2021/12/30 12:59:35;;;;;;;12.23;11.03;;;;;;;;;;4935382;29;20194;-81
2021/12/30 13:02:03;;;;;;;5.97;5.37;;;;;;;;;;4935010;29;20257;-82
2021/12/30 13:04:32;;;;;;;8.93;8.00;;;;;;;;;;4934902;29;20207;-82
2021/12/30 13:07:00;;;;;;;2.47;2.27;;;;;;;;;;4934938;29;20213;-82
2021/12/30 13:09:28;;;;;;;6.67;6.17;;;;;;;;;;4934654;28;20222;-82
2021/12/30 13:11:55;;;;;;;2.30;2.20;;;;;;;;;;4934815;29;20210;-82
2021/12/30 13:14:24;;;;;;;1.53;1.43;;;;;;;;;;4935224;29;20233;-82
2021/12/30 13:16:55;;;;;;;2.53;2.10;;;;;;;;;;4934795;29;20206;-82
2021/12/30 13:19:24;;;;;;;2.87;2.67;;;;;;;;;;4934833;29;20617;-82
2021/12/30 13:22:00;;;;;;;2.60;2.40;;;;;;;;;;4934883;29;20234;-82
2021/12/30 13:24:46;;;;;;;3.10;2.90;;;;;;;;;;4934921;29;20201;-82
2021/12/30 13:27:30;;;;;;;3.63;3.33;;;;;;;;;;4934498;29;20695;-82
2021/12/30 13:29:59;;;;;;;3.97;3.53;;;;;;;;;;4935064;29;20679;-82
2021/12/30 13:32:28;;;;;;;7.73;5.93;;;;;;;;;;4934829;29;20205;-81
2021/12/30 13:35:01;;;;;;;23.20;14.53;;;;;;;;;;4934715;29;20630;-81
2021/12/30 13:37:33;;;;;;;21.43;12.83;;;;;;;;;;4935161;29;20190;-81
2021/12/30 13:40:00;;;;;;;65.50;45.37;;;;;;;;;;4934863;29;20584;-81
2021/12/30 13:42:29;;;;;;;32.83;20.63;;;;;;;;;;4930852;29;20318;-82
2021/12/30 13:44:59;;;;;;;32.17;22.13;;;;;;;;;;4927125;29;20209;-82
2021/12/30 13:47:35;;;;;;;51.07;33.27;;;;;;;;;;4934592;29;20214;-81
2021/12/30 13:50:04;;;;;;;13.67;12.27;;;;;;;;;;4934924;29;20210;-81
2021/12/30 13:52:36;;;;;;;12.60;11.30;;;;;;;;;;4938757;29;20217;-81
2021/12/30 13:55:16;;;;;;;14.90;11.30;;;;;;;;;;4938398;29;20644;-81
2021/12/30 13:57:45;;;;;;;5.67;5.17;;;;;;;;;;4938392;29;20675;-81
2021/12/30 14:00:16;;;;;;;1.87;1.77;;;;;;;;;;4938356;29;20199;-81
2021/12/30 14:02:43;;;;;;;107.37;56.87;;;;;;;;;;4938626;29;20576;-81
2021/12/30 14:05:14;;;;;;;175.47;94.37;;;;;;;;;;4938361;29;20257;-81
2021/12/30 14:07:47;;;;;;;101.47;53.83;;;;;;;;;;4938117;29;20376;-81
2021/12/30 14:10:16;;;;;;;20.63;13.50;;;;;;;;;;4938033;29;20211;-81
2021/12/30 14:12:56;;;;;;;8.03;6.20;;;;;;;;;;4937161;29;20267;-81
2021/12/30 14:15:24;;;;;;;36.87;21.03;;;;;;;;;;4937993;29;20202;-80
2021/12/30 14:17:58;;;;;;;18.57;12.33;;;;;;;;;;4938153;29;20580;-81
2021/12/30 14:20:26;;;;;;;15.90;11.30;;;;;;;;;;4938097;29;20289;-80
2021/12/30 14:22:55;;;;;;;24.80;17.83;;;;;;;;;;4937826;29;20270;-81
2021/12/30 14:25:31;;;;;;;8.07;7.00;;;;;;;;;;4937858;29;20208;-82
2021/12/30 14:27:59;;;;;;;61.10;37.63;;;;;;;;;;4938011;29;20600;-81
2021/12/30 14:30:32;;;;;;;10.60;9.50;;;;;;;;;;4937632;29;20234;-81
2021/12/30 14:33:17;;;;;;;34.93;23.70;;;;;;;;;;4937660;29;20186;-81
2021/12/30 14:35:45;;;;;;;7.83;7.13;;;;;;;;;;4937749;29;20273;-81
2021/12/30 14:38:28;;;;;;;11.03;9.87;;;;;;;;;;4938138;29;20210;-81
2021/12/30 14:41:08;;;;;;;10.00;9.00;;;;;;;;;;4937481;29;20270;-81
2021/12/30 14:44:07;;;;;;;25.50;18.90;;;;;;;;;;4929819;29;20206;-81
2021/12/30 14:46:36;;;;;;;8.47;7.67;;;;;;;;;;4937609;29;20195;-81
2021/12/30 14:49:06;;;;;;;26.40;19.13;;;;;;;;;;4925999;29;20247;-81
2021/12/30 14:51:35;;;;;;;4.20;3.90;;;;;;;;;;4918393;29;20685;-81
2021/12/30 14:54:06;;;;;;;6.63;5.90;;;;;;;;;;4918351;29;20294;-81